createdAt,value
2022-11-27T00:01:23.037Z,2.88
2022-11-27T00:03:52.167Z,2.75
2022-11-27T00:06:22.289Z,3.70
2022-11-27T00:08:51.062Z,2.60
2022-11-27T00:11:21.393Z,2.00
2022-11-27T00:13:50.988Z,2.80
2022-11-27T00:16:22.577Z,2.50
2022-11-27T00:18:51.229Z,2.83
2022-11-27T00:21:24.636Z,2.17
2022-11-27T00:23:54.234Z,2.80
2022-11-27T00:26:23.639Z,2.25
2022-11-27T00:28:52.570Z,2.50
2022-11-27T00:31:28.704Z,2.60
2022-11-27T00:33:57.586Z,2.20
2022-11-27T00:36:26.570Z,2.50
2022-11-27T00:38:55.113Z,2.30
2022-11-27T00:41:25.709Z,2.60
2022-11-27T00:43:55.014Z,2.30
2022-11-27T00:46:28.618Z,2.90
2022-11-27T00:48:58.306Z,2.88
2022-11-27T00:51:27.468Z,4.45
2022-11-27T00:53:56.431Z,4.60
2022-11-27T00:56:26.761Z,2.60
2022-11-27T00:58:55.848Z,3.40
2022-11-27T01:01:27.654Z,2.60
2022-11-27T01:03:57.328Z,3.13
2022-11-27T01:06:27.076Z,2.20
2022-11-27T01:08:55.853Z,3.10
2022-11-27T01:11:25.934Z,2.95
2022-11-27T01:13:54.834Z,3.20
2022-11-27T01:16:26.496Z,3.45
2022-11-27T01:18:57.627Z,3.95
2022-11-27T01:21:27.394Z,4.30
2022-11-27T01:23:56.412Z,4.80
2022-11-27T01:26:24.995Z,5.40
2022-11-27T01:28:53.521Z,5.70
2022-11-27T01:31:23.565Z,5.57
2022-11-27T01:33:55.940Z,5.70
2022-11-27T01:36:24.732Z,7.40
2022-11-27T01:38:53.265Z,6.00
2022-11-27T01:41:23.818Z,5.72
2022-11-27T01:43:53.811Z,5.70
2022-11-27T01:46:38.804Z,5.03
2022-11-27T01:49:23.806Z,4.60
2022-11-27T01:51:57.325Z,5.10
2022-11-27T01:54:30.500Z,5.05
2022-11-27T01:57:04.349Z,5.10
2022-11-27T01:59:32.647Z,3.90
2022-11-27T02:02:01.548Z,4.30
2022-11-27T02:04:31.477Z,4.03
2022-11-27T02:07:00.926Z,3.90
2022-11-27T02:09:31.713Z,3.80
2022-11-27T02:12:07.778Z,3.70
2022-11-27T02:14:44.670Z,5.30
2022-11-27T02:17:27.376Z,12.98
2022-11-27T02:20:14.141Z,9.80
2022-11-27T02:22:59.216Z,7.10
2022-11-27T02:25:35.848Z,5.03
2022-11-27T02:28:28.789Z,4.45
2022-11-27T02:31:04.941Z,8.77
2022-11-27T02:33:36.447Z,6.22
2022-11-27T02:36:11.392Z,7.15
2022-11-27T02:38:42.862Z,6.50
2022-11-27T02:41:17.245Z,6.70
2022-11-27T02:43:48.825Z,6.53
2022-11-27T02:46:20.144Z,5.38
2022-11-27T02:48:50.955Z,4.25
2022-11-27T02:51:33.669Z,4.65
2022-11-27T02:54:05.706Z,4.43
2022-11-27T02:56:35.790Z,4.28
2022-11-27T02:59:08.978Z,4.05
2022-11-27T03:01:44.082Z,4.07
2022-11-27T03:04:18.046Z,3.55
2022-11-27T03:06:49.768Z,3.30
2022-11-27T03:09:23.169Z,3.77
2022-11-27T03:11:51.538Z,3.97
2022-11-27T03:14:24.534Z,3.35
2022-11-27T03:17:03.683Z,3.15
2022-11-27T03:19:40.223Z,3.10
2022-11-27T03:22:08.776Z,3.22
2022-11-27T03:24:37.535Z,3.20
2022-11-27T03:27:08.285Z,2.95
2022-11-27T03:29:40.636Z,3.05
2022-11-27T03:32:10.975Z,3.10
2022-11-27T03:34:40.551Z,2.55
2022-11-27T03:37:09.085Z,2.95
2022-11-27T03:39:37.675Z,3.00
2022-11-27T03:42:19.571Z,2.63
2022-11-27T03:44:56.126Z,3.00
2022-11-27T03:47:39.440Z,2.30
2022-11-27T03:50:20.142Z,2.45
2022-11-27T03:52:56.300Z,2.30
2022-11-27T03:55:32.418Z,2.38
2022-11-27T03:58:03.130Z,2.78
2022-11-27T04:00:35.856Z,2.30
2022-11-27T04:03:06.477Z,2.50
2022-11-27T04:05:34.748Z,2.20
2022-11-27T04:08:02.922Z,2.50
2022-11-27T04:10:31.181Z,2.67
2022-11-27T04:12:59.377Z,2.50
2022-11-27T04:15:27.585Z,2.90
2022-11-27T04:17:55.733Z,2.80
2022-11-27T04:20:25.411Z,3.08
2022-11-27T04:22:54.416Z,3.50
2022-11-27T04:25:22.659Z,3.20
2022-11-27T04:27:51.011Z,3.15
2022-11-27T04:30:19.729Z,2.55
2022-11-27T04:32:47.922Z,2.50
2022-11-27T04:35:16.286Z,2.50
2022-11-27T04:37:45.968Z,3.00
2022-11-27T04:40:15.062Z,2.20
2022-11-27T04:42:43.289Z,2.40
2022-11-27T04:45:12.284Z,3.08
2022-11-27T04:47:40.459Z,2.60
2022-11-27T04:50:10.601Z,2.70
2022-11-27T04:52:38.955Z,2.77
2022-11-27T04:55:10.416Z,2.67
2022-11-27T04:57:38.568Z,2.60
2022-11-27T05:00:08.327Z,2.60
2022-11-27T05:02:36.596Z,2.65
2022-11-27T05:05:05.227Z,2.50
2022-11-27T05:07:33.670Z,2.63
2022-11-27T05:10:02.193Z,2.70
2022-11-27T05:12:31.775Z,2.60
2022-11-27T05:15:04.180Z,2.25
2022-11-27T05:17:32.971Z,3.10
2022-11-27T05:20:01.166Z,2.13
2022-11-27T05:22:29.453Z,2.90
2022-11-27T05:24:57.680Z,2.40
2022-11-27T05:27:25.884Z,2.70
2022-11-27T05:29:55.610Z,2.70
2022-11-27T05:32:23.838Z,2.88
2022-11-27T05:34:52.200Z,2.72
2022-11-27T05:37:20.547Z,2.72
2022-11-27T05:39:48.815Z,2.90
2022-11-27T05:42:16.985Z,2.58
2022-11-27T05:44:45.217Z,3.25
2022-11-27T05:47:14.794Z,2.60
2022-11-27T05:49:42.962Z,2.70
2022-11-27T05:52:11.270Z,2.50
2022-11-27T05:54:39.574Z,2.70
2022-11-27T05:57:08.018Z,2.85
2022-11-27T05:59:36.217Z,3.35
2022-11-27T06:02:05.249Z,3.00
2022-11-27T06:04:35.854Z,2.70
2022-11-27T06:07:04.147Z,2.85
2022-11-27T06:09:32.338Z,3.17
2022-11-27T06:12:00.629Z,4.20
2022-11-27T06:14:29.733Z,4.30
2022-11-27T06:16:58.050Z,3.40
2022-11-27T06:19:26.429Z,3.10
2022-11-27T06:21:56.007Z,3.40
2022-11-27T06:24:25.184Z,2.78
2022-11-27T06:26:53.397Z,2.75
2022-11-27T06:29:21.698Z,3.00
2022-11-27T06:31:49.936Z,3.22
2022-11-27T06:34:18.151Z,3.10
2022-11-27T06:36:46.492Z,3.60
2022-11-27T06:39:18.903Z,4.10
2022-11-27T06:41:47.225Z,3.95
2022-11-27T06:44:15.495Z,4.30
2022-11-27T06:46:43.691Z,4.30
2022-11-27T06:49:12.520Z,4.23
2022-11-27T06:51:40.768Z,5.70
2022-11-27T06:54:08.967Z,5.80
2022-11-27T06:56:38.515Z,6.97
2022-11-27T06:59:06.747Z,14.50
2022-11-27T07:01:35.452Z,14.13
2022-11-27T07:04:03.701Z,7.80
2022-11-27T07:06:31.930Z,5.63
2022-11-27T07:09:00.241Z,5.57
2022-11-27T07:11:31.937Z,5.80
2022-11-27T07:14:03.611Z,4.87
2022-11-27T07:16:34.390Z,8.50
2022-11-27T07:19:05.274Z,10.85
2022-11-27T07:21:34.210Z,17.00
2022-11-27T07:24:02.709Z,26.50
2022-11-27T07:26:32.008Z,14.50
2022-11-27T07:29:01.653Z,12.85
2022-11-27T07:31:31.270Z,12.18
2022-11-27T07:33:59.925Z,8.13
2022-11-27T07:36:30.419Z,5.13
2022-11-27T07:38:59.762Z,4.28
2022-11-27T07:41:33.556Z,4.60
2022-11-27T07:44:04.056Z,5.55
2022-11-27T07:46:32.519Z,7.03
2022-11-27T07:49:01.555Z,6.70
2022-11-27T07:51:30.155Z,7.28
2022-11-27T07:53:58.456Z,7.40
2022-11-27T07:56:27.455Z,10.55
2022-11-27T07:58:55.643Z,12.90
2022-11-27T08:01:25.627Z,50.50
2022-11-27T08:03:53.999Z,27.85
2022-11-27T08:06:23.912Z,14.82
2022-11-27T08:08:52.755Z,13.90
2022-11-27T08:11:23.528Z,6.95
2022-11-27T08:13:56.174Z,6.10
2022-11-27T08:16:25.884Z,6.78
2022-11-27T08:18:54.397Z,13.35
2022-11-27T08:21:22.649Z,9.32
2022-11-27T08:23:50.879Z,8.02
2022-11-27T08:26:19.534Z,12.87
2022-11-27T08:28:48.194Z,5.82
2022-11-27T08:31:16.825Z,10.10
2022-11-27T08:33:46.378Z,14.40
2022-11-27T08:36:18.071Z,10.38
2022-11-27T08:38:46.468Z,11.13
2022-11-27T08:41:15.090Z,9.45
2022-11-27T08:43:43.360Z,16.38
2022-11-27T08:46:12.147Z,12.75
2022-11-27T08:48:40.489Z,8.40
2022-11-27T08:51:12.749Z,7.60
2022-11-27T08:53:41.670Z,6.30
2022-11-27T08:56:12.652Z,6.80
2022-11-27T08:58:41.151Z,6.68
2022-11-27T09:01:11.358Z,6.93
2022-11-27T09:03:39.927Z,6.70
2022-11-27T09:06:11.749Z,7.50
2022-11-27T09:08:40.751Z,6.80
2022-11-27T09:11:10.580Z,9.10
2022-11-27T09:13:40.250Z,6.40
2022-11-27T09:16:10.768Z,9.55
2022-11-27T09:18:39.559Z,9.00
2022-11-27T09:21:10.917Z,10.63
2022-11-27T09:23:39.852Z,8.02
2022-11-27T09:26:10.474Z,8.40
2022-11-27T09:28:39.840Z,8.93
2022-11-27T09:31:10.009Z,9.23
2022-11-27T09:33:40.454Z,7.90
2022-11-27T09:36:12.057Z,6.03
2022-11-27T09:38:40.473Z,6.90
2022-11-27T09:41:25.893Z,7.55
2022-11-27T09:43:57.833Z,10.45
2022-11-27T09:46:30.407Z,9.77
2022-11-27T09:49:00.306Z,5.75
2022-11-27T09:51:35.862Z,5.55
2022-11-27T09:54:09.771Z,3.30
2022-11-27T09:56:38.065Z,3.30
2022-11-27T09:59:15.918Z,2.50
2022-11-27T10:01:49.395Z,2.60
2022-11-27T10:04:21.046Z,2.60
2022-11-27T10:07:06.379Z,2.00
2022-11-27T10:09:44.966Z,14.43
2022-11-27T10:12:24.036Z,17.50
2022-11-27T10:15:04.807Z,5.00
2022-11-27T10:17:38.761Z,2.45
2022-11-27T10:20:19.573Z,2.00
2022-11-27T10:22:57.493Z,1.83
2022-11-27T10:25:32.064Z,2.47
2022-11-27T10:28:17.395Z,2.70
2022-11-27T10:30:52.643Z,2.53
2022-11-27T10:33:27.032Z,2.25
2022-11-27T10:35:56.145Z,2.40
2022-11-27T10:38:28.088Z,2.20
2022-11-27T10:41:34.370Z,2.20
2022-11-27T10:44:13.767Z,2.10
2022-11-27T10:46:42.439Z,2.60
2022-11-27T10:49:11.307Z,2.10
2022-11-27T10:51:42.407Z,2.20
2022-11-27T10:54:23.126Z,2.20
2022-11-27T10:57:12.495Z,2.33
2022-11-27T10:59:47.845Z,1.83
2022-11-27T11:02:31.995Z,1.92
2022-11-27T11:05:37.307Z,2.55
2022-11-27T11:08:06.078Z,2.60
2022-11-27T11:10:38.671Z,2.78
2022-11-27T11:13:19.772Z,2.67
2022-11-27T11:15:53.627Z,1.70
2022-11-27T11:18:23.648Z,1.73
2022-11-27T11:20:54.723Z,1.90
2022-11-27T11:23:28.891Z,1.77
2022-11-27T11:26:02.710Z,1.90
2022-11-27T11:28:36.536Z,2.10
2022-11-27T11:31:10.848Z,1.70
2022-11-27T11:33:49.656Z,1.88
2022-11-27T11:36:17.965Z,1.88
2022-11-27T11:38:47.848Z,1.90
2022-11-27T11:41:19.061Z,1.90
2022-11-27T11:43:58.518Z,2.80
2022-11-27T11:46:29.997Z,2.15
2022-11-27T11:49:01.522Z,1.60
2022-11-27T11:51:57.100Z,1.40
2022-11-27T11:54:39.357Z,1.40
2022-11-27T11:57:25.555Z,1.40
2022-11-27T12:00:04.563Z,1.30
2022-11-27T12:02:51.378Z,1.40
2022-11-27T12:05:33.192Z,1.20
2022-11-27T12:08:22.519Z,1.40
2022-11-27T12:10:57.632Z,2.00
2022-11-27T12:13:38.800Z,4.82
2022-11-27T12:16:17.708Z,2.10
2022-11-27T12:19:01.418Z,1.70
2022-11-27T12:21:40.293Z,2.47
2022-11-27T12:24:20.776Z,3.63
2022-11-27T12:26:59.166Z,4.53
2022-11-27T12:30:01.056Z,3.70
2022-11-27T12:32:45.008Z,4.40
2022-11-27T12:35:35.064Z,3.90
2022-11-27T12:38:29.333Z,3.40
2022-11-27T12:41:21.517Z,13.50
2022-11-27T12:43:52.031Z,8.00
2022-11-27T12:46:27.848Z,11.88
2022-11-27T12:49:00.336Z,9.10
2022-11-27T12:51:33.082Z,6.75
2022-11-27T12:54:04.866Z,7.45
2022-11-27T12:56:39.129Z,8.10
2022-11-27T12:59:15.841Z,18.67
2022-11-27T13:01:48.749Z,18.60
2022-11-27T13:04:23.610Z,7.88
2022-11-27T13:07:02.585Z,8.52
2022-11-27T13:09:42.025Z,11.25
2022-11-27T13:12:14.985Z,8.00
2022-11-27T13:14:46.518Z,3.83
2022-11-27T13:17:20.136Z,7.38
2022-11-27T13:19:51.864Z,9.65
2022-11-27T13:22:27.527Z,9.77
2022-11-27T13:24:56.849Z,10.03
2022-11-27T13:27:28.159Z,6.07
2022-11-27T13:30:00.849Z,2.60
2022-11-27T13:32:34.567Z,3.70
2022-11-27T13:35:07.271Z,2.00
2022-11-27T13:37:38.148Z,2.30
2022-11-27T13:40:17.745Z,2.80
2022-11-27T13:42:49.146Z,2.03
2022-11-27T13:45:23.917Z,2.00
2022-11-27T13:47:54.226Z,2.08
2022-11-27T13:50:29.691Z,1.80
2022-11-27T13:53:04.281Z,1.50
2022-11-27T13:55:34.766Z,1.40
2022-11-27T13:58:04.502Z,1.55
2022-11-27T14:00:36.188Z,1.40
2022-11-27T14:03:09.807Z,1.80
2022-11-27T14:05:41.614Z,1.90
2022-11-27T14:08:21.815Z,1.88
2022-11-27T14:10:57.206Z,1.90
2022-11-27T14:13:38.219Z,1.50
2022-11-27T14:16:24.258Z,1.80
2022-11-27T14:18:55.331Z,2.13
2022-11-27T14:21:31.902Z,1.60
2022-11-27T14:24:05.841Z,2.03
2022-11-27T14:26:34.513Z,5.40
2022-11-27T14:29:02.708Z,5.90
2022-11-27T14:31:33.540Z,6.80
2022-11-27T14:34:24.270Z,16.47
2022-11-27T14:36:53.550Z,15.88
2022-11-27T14:39:26.565Z,15.18
2022-11-27T14:41:59.014Z,7.37
2022-11-27T14:44:27.598Z,3.83
2022-11-27T14:46:58.316Z,6.00
2022-11-27T14:49:29.604Z,5.50
2022-11-27T14:52:01.387Z,4.70
2022-11-27T14:54:32.557Z,4.18
2022-11-27T14:57:01.095Z,2.08
2022-11-27T14:59:29.671Z,1.80
2022-11-27T15:02:04.116Z,1.50
2022-11-27T15:04:37.359Z,1.77
2022-11-27T15:07:08.173Z,2.30
2022-11-27T15:09:37.499Z,2.20
2022-11-27T15:12:16.299Z,2.30
2022-11-27T15:14:48.223Z,2.60
2022-11-27T15:17:20.755Z,4.95
2022-11-27T15:19:50.620Z,14.38
2022-11-27T15:22:19.822Z,25.10
2022-11-27T15:24:48.116Z,9.00
2022-11-27T15:27:21.745Z,4.03
2022-11-27T15:30:12.150Z,2.67
2022-11-27T15:32:52.302Z,2.33
2022-11-27T15:35:28.190Z,2.20
2022-11-27T15:37:58.157Z,2.10
2022-11-27T15:40:31.774Z,2.30
2022-11-27T15:43:00.239Z,1.77
2022-11-27T15:45:31.605Z,2.40
2022-11-27T15:48:01.614Z,2.60
2022-11-27T15:50:31.676Z,2.13
2022-11-27T15:53:01.026Z,2.30
2022-11-27T15:55:29.320Z,3.53
2022-11-27T15:57:57.709Z,3.90
2022-11-27T16:00:27.100Z,4.55
2022-11-27T16:02:55.752Z,7.20
2022-11-27T16:05:23.923Z,8.20
2022-11-27T16:07:55.311Z,5.30
2022-11-27T16:10:24.024Z,4.35
2022-11-27T16:12:55.153Z,6.75
2022-11-27T16:15:25.778Z,9.10
2022-11-27T16:17:57.046Z,10.65
2022-11-27T16:20:25.669Z,8.55
2022-11-27T16:22:55.490Z,7.20
2022-11-27T16:25:25.175Z,7.05
2022-11-27T16:27:57.940Z,9.10
2022-11-27T16:30:27.739Z,7.47
2022-11-27T16:32:55.975Z,6.77
2022-11-27T16:35:26.112Z,7.13
2022-11-27T16:37:56.467Z,7.47
2022-11-27T16:40:24.898Z,4.33
2022-11-27T16:42:53.497Z,5.22
2022-11-27T16:45:21.858Z,6.80
2022-11-27T16:47:50.689Z,4.93
2022-11-27T16:50:19.378Z,4.93
2022-11-27T16:52:54.151Z,7.22
2022-11-27T16:55:26.201Z,12.32
2022-11-27T16:57:55.736Z,10.95
2022-11-27T17:00:24.367Z,8.40
2022-11-27T17:02:54.063Z,6.15
2022-11-27T17:05:22.545Z,4.82
2022-11-27T17:07:50.725Z,5.10
2022-11-27T17:10:19.165Z,12.40
2022-11-27T17:12:48.822Z,10.50
2022-11-27T17:15:17.234Z,10.55
2022-11-27T17:17:45.467Z,6.03
2022-11-27T17:20:14.467Z,5.88
2022-11-27T17:22:42.804Z,4.30
2022-11-27T17:25:11.496Z,4.50
2022-11-27T17:27:39.862Z,7.25
2022-11-27T17:30:11.517Z,6.05
2022-11-27T17:32:39.949Z,3.90
2022-11-27T17:35:08.944Z,4.40
2022-11-27T17:37:37.397Z,4.60
2022-11-27T17:40:06.978Z,3.30
2022-11-27T17:42:35.318Z,3.97
2022-11-27T17:45:03.554Z,4.22
2022-11-27T17:47:34.080Z,3.47
2022-11-27T17:50:02.780Z,3.42
2022-11-27T17:52:32.154Z,3.85
2022-11-27T17:55:00.381Z,5.03
2022-11-27T17:57:28.975Z,4.28
2022-11-27T17:59:57.797Z,4.60
2022-11-27T18:02:26.149Z,5.20
2022-11-27T18:04:55.779Z,6.00
2022-11-27T18:07:25.344Z,5.27
2022-11-27T18:09:54.354Z,4.55
2022-11-27T18:12:22.581Z,3.72
2022-11-27T18:14:56.497Z,4.38
2022-11-27T18:17:28.921Z,4.82
2022-11-27T18:19:59.121Z,3.72
2022-11-27T18:22:27.435Z,5.00
2022-11-27T18:24:55.619Z,4.47
2022-11-27T18:27:23.864Z,3.92
2022-11-27T18:29:52.169Z,4.90
2022-11-27T18:32:20.914Z,3.35
2022-11-27T18:34:49.459Z,4.88
2022-11-27T18:37:20.383Z,3.10
2022-11-27T18:39:48.767Z,4.15
2022-11-27T18:42:17.066Z,4.00
2022-11-27T18:44:46.476Z,3.88
2022-11-27T18:47:15.795Z,3.60
2022-11-27T18:49:46.165Z,3.40
2022-11-27T18:52:14.841Z,3.40
2022-11-27T18:54:44.670Z,2.78
2022-11-27T18:57:15.064Z,2.50
2022-11-27T18:59:44.930Z,2.38
2022-11-27T19:02:14.323Z,2.60
2022-11-27T19:04:44.851Z,3.60
2022-11-27T19:07:13.478Z,3.75
2022-11-27T19:09:41.876Z,3.35
2022-11-27T19:12:12.259Z,3.90
2022-11-27T19:14:40.738Z,3.60
2022-11-27T19:17:09.444Z,4.28
2022-11-27T19:19:54.539Z,3.60
2022-11-27T19:22:23.579Z,3.67
2022-11-27T19:24:51.932Z,3.85
2022-11-27T19:27:21.522Z,3.30
2022-11-27T19:29:50.034Z,3.10
2022-11-27T19:32:18.886Z,3.80
2022-11-27T19:34:47.214Z,4.53
2022-11-27T19:37:21.316Z,3.90
2022-11-27T19:39:57.171Z,3.80
2022-11-27T19:42:27.327Z,3.20
2022-11-27T19:44:56.123Z,3.08
2022-11-27T19:47:24.661Z,3.60
2022-11-27T19:49:53.046Z,3.17
2022-11-27T19:52:21.447Z,3.20
2022-11-27T19:54:49.841Z,3.60
2022-11-27T19:57:18.624Z,4.68
2022-11-27T19:59:48.681Z,3.38
2022-11-27T20:02:18.163Z,3.60
2022-11-27T20:04:46.522Z,3.45
2022-11-27T20:07:14.888Z,3.70
2022-11-27T20:09:43.231Z,4.20
2022-11-27T20:12:11.745Z,3.85
2022-11-27T20:14:40.317Z,3.17
2022-11-27T20:17:10.393Z,2.80
2022-11-27T20:19:39.456Z,3.33
2022-11-27T20:22:08.147Z,3.00
2022-11-27T20:24:47.981Z,2.95
2022-11-27T20:27:25.454Z,2.90
2022-11-27T20:29:55.215Z,3.10
2022-11-27T20:32:25.202Z,3.53
2022-11-27T20:34:54.648Z,3.90
2022-11-27T20:37:23.050Z,4.10
2022-11-27T20:39:51.803Z,3.25
2022-11-27T20:42:22.253Z,2.90
2022-11-27T20:44:51.402Z,2.97
2022-11-27T20:47:19.642Z,2.80
2022-11-27T20:49:49.234Z,2.90
2022-11-27T20:52:19.475Z,2.42
2022-11-27T20:54:47.778Z,3.90
2022-11-27T20:57:16.332Z,2.63
2022-11-27T20:59:44.641Z,4.95
2022-11-27T21:02:13.488Z,3.50
2022-11-27T21:04:41.783Z,3.10
2022-11-27T21:07:12.120Z,3.30
2022-11-27T21:09:40.641Z,3.30
2022-11-27T21:12:10.449Z,3.10
2022-11-27T21:14:38.676Z,3.23
2022-11-27T21:17:07.601Z,3.30
2022-11-27T21:19:35.818Z,3.53
2022-11-27T21:22:04.477Z,3.37
2022-11-27T21:24:34.078Z,3.20
2022-11-27T21:27:03.519Z,3.35
2022-11-27T21:29:31.783Z,3.20
2022-11-27T21:32:00.070Z,3.17
2022-11-27T21:34:28.610Z,3.78
2022-11-27T21:36:57.169Z,4.63
2022-11-27T21:39:25.780Z,4.57
2022-11-27T21:41:56.853Z,4.13
2022-11-27T21:44:26.946Z,4.10
2022-11-27T21:46:55.191Z,3.53
2022-11-27T21:49:24.419Z,3.70
2022-11-27T21:51:54.086Z,3.90
2022-11-27T21:54:29.639Z,3.30
2022-11-27T21:56:59.462Z,3.28
2022-11-27T21:59:27.776Z,3.20
2022-11-27T22:01:57.297Z,3.03
2022-11-27T22:04:26.396Z,3.38
2022-11-27T22:06:55.061Z,3.30
2022-11-27T22:09:23.228Z,3.70
2022-11-27T22:11:53.801Z,3.00
2022-11-27T22:14:23.503Z,3.40
2022-11-27T22:16:51.835Z,3.10
2022-11-27T22:19:20.199Z,3.28
2022-11-27T22:21:50.672Z,3.38
2022-11-27T22:24:19.952Z,3.60
2022-11-27T22:26:52.499Z,3.65
2022-11-27T22:29:20.783Z,4.10
2022-11-27T22:31:50.413Z,4.82
2022-11-27T22:34:18.731Z,5.40
2022-11-27T22:36:47.703Z,7.07
2022-11-27T22:39:16.392Z,5.60
2022-11-27T22:41:46.029Z,5.22
2022-11-27T22:44:17.502Z,5.10
2022-11-27T22:46:46.536Z,4.70
2022-11-27T22:49:18.412Z,3.10
2022-11-27T22:51:47.114Z,2.50
2022-11-27T22:54:18.000Z,2.83
2022-11-27T22:56:47.360Z,2.70
2022-11-27T22:59:33.687Z,2.60
2022-11-27T23:02:05.088Z,2.60
2022-11-27T23:04:35.409Z,2.58
2022-11-27T23:07:04.163Z,2.60
2022-11-27T23:09:33.089Z,2.17
2022-11-27T23:12:01.341Z,2.50
2022-11-27T23:14:29.624Z,2.45
2022-11-27T23:16:57.923Z,1.90
2022-11-27T23:19:26.189Z,2.58
2022-11-27T23:21:55.693Z,2.22
2022-11-27T23:24:23.902Z,2.20
2022-11-27T23:26:52.129Z,2.40
2022-11-27T23:29:20.496Z,2.30
2022-11-27T23:31:48.832Z,2.30
2022-11-27T23:34:17.108Z,2.75
2022-11-27T23:36:45.905Z,2.10
2022-11-27T23:39:16.002Z,2.42
2022-11-27T23:41:44.620Z,2.05
2022-11-27T23:44:12.883Z,2.10
2022-11-27T23:46:41.083Z,2.00
2022-11-27T23:49:09.336Z,2.40
2022-11-27T23:51:37.851Z,2.17
2022-11-27T23:54:09.669Z,2.42
2022-11-27T23:56:39.800Z,1.93
2022-11-27T23:59:08.678Z,2.00
